Time;durP1;ratioP1;P1;durP2;ratioP2;P2;SDS_P1;SDS_P2;PMS_P1;PMS_P2;Temp;Humidity;BMP_temperature;BMP_pressure;BME280_temperature;BME280_humidity;BME280_pressure;Samples;Min_cycle;Max_cycle;Signal;HPM_P1;HPM_P2
2024/02/28 00:01:51;;;;;;;41.47;21.95;;;;;;;8.01;62.32;97284.25;4996762;28;20036;-78
2024/02/28 00:04:17;;;;;;;36.22;20.58;;;;;;;7.93;62.53;97278.59;4998350;28;20034;-78
2024/02/28 00:06:42;;;;;;;37.17;20.20;;;;;;;7.88;62.20;97276.69;5008489;28;20042;-78
2024/02/28 00:09:08;;;;;;;39.55;20.65;;;;;;;7.97;62.58;97285.72;4974614;28;20486;-78
2024/02/28 00:11:33;;;;;;;40.13;20.73;;;;;;;7.93;61.33;97281.97;5006857;28;20042;-78
2024/02/28 00:14:02;;;;;;;37.80;20.98;;;;;;;7.96;62.51;97286.72;5006582;28;20034;-78
2024/02/28 00:16:27;;;;;;;39.25;21.15;;;;;;;7.96;61.73;97270.38;5006232;28;20451;-78
2024/02/28 00:18:53;;;;;;;38.95;20.73;;;;;;;7.94;62.59;97269.81;5007326;28;20112;-78
2024/02/28 00:21:18;;;;;;;40.25;21.35;;;;;;;7.89;62.35;97275.69;5007220;28;20042;-78
2024/02/28 00:23:44;;;;;;;40.20;20.15;;;;;;;7.91;61.54;97278.03;4990568;28;20061;-78
2024/02/28 00:26:11;;;;;;;37.58;19.98;;;;;;;7.83;62.15;97277.38;4998944;28;20047;-78
2024/02/28 00:28:37;;;;;;;34.67;19.15;;;;;;;7.69;60.97;97279.38;5007514;28;20108;-83
2024/02/28 00:31:02;;;;;;;30.77;17.45;;;;;;;7.57;61.27;97281.13;5005653;28;20037;-83
2024/02/28 00:33:28;;;;;;;36.03;19.17;;;;;;;7.45;60.67;97286.31;4993372;28;20076;-82
2024/02/28 00:35:53;;;;;;;30.20;16.67;;;;;;;7.34;61.51;97284.47;5027673;28;20039;-82
2024/02/28 00:38:19;;;;;;;35.25;19.35;;;;;;;7.24;61.82;97279.81;4991861;28;20462;-82
2024/02/28 00:40:44;;;;;;;33.90;18.67;;;;;;;7.21;61.18;97292.41;5006507;28;20037;-81
2024/02/28 00:43:09;;;;;;;37.90;20.27;;;;;;;7.12;61.82;97289.34;5000576;28;20038;-82
2024/02/28 00:45:35;;;;;;;37.08;18.85;;;;;;;7.16;61.88;97292.28;5008343;28;20116;-82
2024/02/28 00:48:01;;;;;;;34.40;18.50;;;;;;;7.15;62.46;97293.28;4976836;28;20032;-82
2024/02/28 00:50:26;;;;;;;34.58;18.52;;;;;;;7.16;62.95;97303.41;4991586;28;20096;-82
2024/02/28 00:52:51;;;;;;;33.80;18.35;;;;;;;7.15;61.77;97301.06;4982691;28;20365;-82
2024/02/28 00:55:18;;;;;;;40.55;21.63;;;;;;;7.13;61.89;97309.06;4976619;28;20026;-82
2024/02/28 00:57:44;;;;;;;39.53;21.80;;;;;;;7.10;61.83;97301.72;5021477;28;20045;-82
2024/02/28 01:00:10;;;;;;;40.90;20.85;;;;;;;7.09;62.27;97298.34;5006132;28;20034;-82
2024/02/28 01:02:35;;;;;;;40.42;21.83;;;;;;;7.09;61.43;97307.88;4977380;28;20038;-82
2024/02/28 01:05:01;;;;;;;37.90;20.70;;;;;;;7.05;61.65;97314.53;5016439;28;20394;-82
2024/02/28 01:07:26;;;;;;;41.70;21.02;;;;;;;7.08;62.52;97314.09;4991572;28;20037;-82
2024/02/28 01:09:51;;;;;;;43.08;22.20;;;;;;;7.06;63.16;97308.31;4999256;28;20067;-82
2024/02/28 01:12:17;;;;;;;39.65;20.90;;;;;;;7.09;62.95;97313.06;5008837;28;20033;-82
2024/02/28 01:14:42;;;;;;;43.45;22.20;;;;;;;7.07;62.62;97309.91;5001876;28;20049;-82
2024/02/28 01:17:08;;;;;;;42.50;21.65;;;;;;;7.13;62.46;97314.22;4991617;28;20069;-82
2024/02/28 01:19:33;;;;;;;45.85;21.75;;;;;;;7.12;63.83;97312.63;4992282;28;20069;-82
2024/02/28 01:21:59;;;;;;;47.92;23.77;;;;;;;7.02;63.32;97309.78;5016449;28;20504;-82
2024/02/28 01:24:24;;;;;;;45.50;22.67;;;;;;;7.03;64.16;97303.59;4990961;28;20044;-82
2024/02/28 01:26:50;;;;;;;45.47;23.85;;;;;;;7.03;64.41;97311.38;4977566;28;20057;-81
2024/02/28 01:29:15;;;;;;;45.10;21.83;;;;;;;6.96;64.25;97308.84;4994699;28;20338;-81
2024/02/28 01:31:40;;;;;;;44.20;21.02;;;;;;;7.05;63.44;97311.94;4994720;28;20095;-82
2024/02/28 01:34:06;;;;;;;45.53;22.92;;;;;;;6.99;63.31;97311.00;4978434;28;20509;-82
2024/02/28 01:36:31;;;;;;;48.63;22.55;;;;;;;6.94;63.92;97309.06;5020581;28;20405;-82
2024/02/28 01:38:56;;;;;;;45.15;22.15;;;;;;;6.92;63.26;97311.09;5009871;28;20029;-82
2024/02/28 01:41:22;;;;;;;46.38;22.15;;;;;;;6.95;63.58;97304.66;4982650;28;20111;-81
2024/02/28 01:43:47;;;;;;;43.92;22.02;;;;;;;6.97;63.03;97314.81;4998977;28;20049;-81
2024/02/28 01:46:28;;;;;;;45.67;22.50;;;;;;;7.08;63.95;97325.22;4994128;28;20034;-80
2024/02/28 01:48:55;;;;;;;45.42;21.83;;;;;;;7.02;63.40;97333.06;4999521;28;20104;-81
2024/02/28 01:51:24;;;;;;;42.28;21.15;;;;;;;7.09;63.89;97333.78;4993523;28;20068;-81
2024/02/28 01:53:51;;;;;;;44.05;21.02;;;;;;;7.04;63.41;97333.63;5011010;28;20041;-81
2024/02/28 01:56:17;;;;;;;42.22;20.48;;;;;;;7.03;64.07;97326.91;4996616;28;20041;-81
2024/02/28 01:58:47;;;;;;;44.20;21.70;;;;;;;7.01;63.35;97323.72;4999193;28;20030;-81
2024/02/28 02:01:16;;;;;;;46.70;22.17;;;;;;;7.06;63.24;97323.84;5011612;28;20033;-78
2024/02/28 02:03:48;;;;;;;48.88;22.48;;;;;;;7.01;63.79;97326.31;4990929;28;20494;-78
2024/02/28 02:06:14;;;;;;;44.47;21.15;;;;;;;6.91;63.89;97332.78;5008073;28;20090;-78
2024/02/28 02:08:39;;;;;;;48.17;21.90;;;;;;;7.00;64.05;97335.88;5007375;28;20470;-78
2024/02/28 02:11:06;;;;;;;47.40;21.58;;;;;;;6.94;65.02;97332.38;4995336;28;20029;-78
2024/02/28 02:13:31;;;;;;;48.97;22.73;;;;;;;6.94;63.96;97327.19;4993557;28;20026;-78
2024/02/28 02:15:57;;;;;;;46.85;22.98;;;;;;;6.94;64.10;97332.38;4982278;28;20041;-78
2024/02/28 02:18:22;;;;;;;46.83;21.85;;;;;;;6.94;64.17;97332.38;5012677;28;20079;-78
2024/02/28 02:20:50;;;;;;;49.90;22.67;;;;;;;6.99;64.08;97333.50;5015027;28;20030;-78
2024/02/28 02:23:15;;;;;;;49.17;22.63;;;;;;;7.01;63.66;97334.88;4977183;28;20038;-78
2024/02/28 02:25:45;;;;;;;44.53;22.92;;;;;;;7.02;63.71;97327.91;5009344;28;20048;-78
2024/02/28 02:28:10;;;;;;;45.47;21.17;;;;;;;6.87;64.48;97323.88;5000388;28;20045;-78
2024/02/28 02:30:36;;;;;;;45.17;22.70;;;;;;;6.95;64.61;97340.91;4993320;28;20030;-78
2024/02/28 02:33:01;;;;;;;53.25;24.35;;;;;;;6.96;64.25;97339.09;5006472;28;20099;-78
2024/02/28 02:35:26;;;;;;;44.08;21.42;;;;;;;6.99;64.61;97339.50;4996379;28;20049;-78
2024/02/28 02:37:52;;;;;;;47.47;21.23;;;;;;;7.04;64.85;97341.41;4976125;28;20560;-78
2024/02/28 02:40:17;;;;;;;48.00;22.92;;;;;;;6.99;64.07;97343.84;5009498;28;20127;-81
2024/02/28 02:42:43;;;;;;;45.67;22.23;;;;;;;6.91;64.23;97332.78;4993498;28;20053;-81
2024/02/28 02:45:08;;;;;;;50.90;22.52;;;;;;;6.87;65.15;97346.38;5007010;28;20038;-82
2024/02/28 02:47:35;;;;;;;46.70;21.98;;;;;;;6.87;64.63;97336.03;4976998;28;20048;-81
2024/02/28 02:50:00;;;;;;;47.35;23.17;;;;;;;6.91;63.52;97343.16;4977209;28;20030;-81
2024/02/28 02:52:26;;;;;;;46.33;23.48;;;;;;;6.88;64.06;97340.97;4993100;28;20533;-81
2024/02/28 02:54:51;;;;;;;44.92;22.23;;;;;;;6.85;63.80;97335.44;5009503;28;20042;-82
2024/02/28 02:57:17;;;;;;;44.53;20.98;;;;;;;6.89;63.86;97344.38;4993208;28;20034;-81
2024/02/28 02:59:42;;;;;;;41.50;20.77;;;;;;;6.81;63.95;97340.25;5001598;28;20057;-82
2024/02/28 03:02:07;;;;;;;39.88;19.60;;;;;;;6.74;63.05;97353.28;5019262;28;20033;-82
2024/02/28 03:04:33;;;;;;;40.72;19.58;;;;;;;6.69;62.97;97347.16;5009769;28;20077;-82
2024/02/28 03:06:58;;;;;;;39.97;20.10;;;;;;;6.57;63.29;97350.44;4977371;28;20029;-82
2024/02/28 03:09:24;;;;;;;38.42;19.35;;;;;;;6.54;63.56;97348.28;4993345;28;20034;-82
2024/02/28 03:11:49;;;;;;;41.15;19.85;;;;;;;6.50;63.16;97347.16;5000192;28;20068;-82
2024/02/28 03:14:15;;;;;;;36.63;18.40;;;;;;;6.48;63.13;97358.72;5019002;28;20061;-82
2024/02/28 03:16:44;;;;;;;36.47;18.98;;;;;;;6.40;62.03;97351.22;4993768;28;20482;-82
2024/02/28 03:19:10;;;;;;;41.53;19.52;;;;;;;6.28;62.06;97354.50;4993424;28;20041;-82
2024/02/28 03:21:36;;;;;;;39.78;19.88;;;;;;;6.24;62.28;97357.72;5016919;28;20500;-82
2024/02/28 03:24:01;;;;;;;46.92;21.88;;;;;;;6.16;61.77;97356.19;4990027;28;20042;-82
2024/02/28 03:26:27;;;;;;;40.05;20.27;;;;;;;6.17;62.71;97360.38;4993069;28;20040;-82
2024/02/28 03:28:52;;;;;;;44.13;22.00;;;;;;;6.13;62.58;97351.44;4993281;28;20061;-82
2024/02/28 03:31:18;;;;;;;37.97;20.50;;;;;;;6.16;63.16;97354.38;4977112;28;20034;-82
2024/02/28 03:33:43;;;;;;;41.67;20.65;;;;;;;6.21;62.93;97353.75;5007240;28;20033;-81
2024/02/28 03:36:08;;;;;;;50.03;23.23;;;;;;;6.18;63.48;97349.78;5013867;28;20046;-82
2024/02/28 03:38:37;;;;;;;62.33;28.25;;;;;;;6.21;64.14;97366.69;4993080;28;20030;-83
2024/02/28 03:41:03;;;;;;;52.15;24.95;;;;;;;6.25;62.63;97364.47;5010264;28;20042;-82
2024/02/28 03:43:29;;;;;;;42.00;20.77;;;;;;;6.19;63.01;97363.53;5005933;28;20029;-82
2024/02/28 03:45:54;;;;;;;39.00;18.70;;;;;;;6.15;62.32;97365.75;4996788;28;20033;-83
2024/02/28 03:48:19;;;;;;;42.65;19.25;;;;;;;6.15;62.57;97377.88;4999384;28;20124;-82
2024/02/28 03:50:45;;;;;;;38.80;20.20;;;;;;;6.16;62.57;97382.81;5005098;28;20030;-82
2024/02/28 03:53:10;;;;;;;75.13;22.23;;;;;;;6.12;62.45;97386.84;5001480;28;20137;-82
2024/02/28 03:55:37;;;;;;;42.85;19.00;;;;;;;6.06;64.44;97382.50;4986450;28;20506;-83
2024/02/28 03:58:03;;;;;;;37.15;17.98;;;;;;;6.12;62.76;97383.47;4992303;28;20040;-82
2024/02/28 04:00:28;;;;;;;35.25;17.40;;;;;;;6.15;62.14;97391.59;5000906;28;20551;-78
2024/02/28 04:02:53;;;;;;;28.30;14.40;;;;;;;6.09;62.41;97387.25;5011100;28;20033;-79
2024/02/28 04:05:19;;;;;;;28.15;13.30;;;;;;;5.97;62.85;97384.56;5016527;28;20037;-78
2024/02/28 04:07:44;;;;;;;23.65;12.27;;;;;;;5.97;62.50;97396.69;4975766;28;20084;-82
2024/02/28 04:10:11;;;;;;;24.83;13.80;;;;;;;5.86;63.27;97403.31;4977257;28;20033;-83
2024/02/28 04:12:36;;;;;;;21.40;11.35;;;;;;;5.77;62.89;97400.16;5015317;28;20051;-83
2024/02/28 04:15:02;;;;;;;23.55;12.35;;;;;;;5.69;62.58;97408.16;5007803;28;20040;-82
2024/02/28 04:17:28;;;;;;;27.00;13.07;;;;;;;5.58;62.93;97401.06;4983833;28;20030;-82
2024/02/28 04:19:53;;;;;;;29.48;12.50;;;;;;;5.56;62.98;97416.75;5005068;28;20433;-83
2024/02/28 04:22:19;;;;;;;67.05;15.13;;;;;;;5.45;63.13;97412.25;4994353;28;20061;-82
2024/02/28 04:24:44;;;;;;;77.07;16.67;;;;;;;5.29;63.82;97407.53;4981041;28;20211;-82
2024/02/28 04:27:11;;;;;;;30.17;14.02;;;;;;;5.31;64.33;97418.44;4997550;28;20519;-82
2024/02/28 04:29:37;;;;;;;25.13;13.57;;;;;;;5.37;63.61;97409.91;4998704;28;20402;-83
2024/02/28 04:32:02;;;;;;;25.63;13.15;;;;;;;5.41;63.54;97400.72;5008049;28;20034;-82
2024/02/28 04:34:27;;;;;;;25.75;12.13;;;;;;;5.41;63.13;97408.47;4991662;28;20478;-83
2024/02/28 04:36:53;;;;;;;22.45;11.52;;;;;;;5.29;62.29;97413.47;5009958;28;20532;-83
2024/02/28 04:39:18;;;;;;;20.80;11.45;;;;;;;5.15;61.96;97417.13;4975493;28;20442;-82
2024/02/28 04:41:43;;;;;;;23.20;11.80;;;;;;;5.10;62.52;97424.66;4976852;28;20044;-82
2024/02/28 04:44:09;;;;;;;22.75;10.90;;;;;;;5.05;63.73;97428.66;5007988;28;20034;-82
2024/02/28 04:46:34;;;;;;;22.38;11.15;;;;;;;5.06;63.85;97429.44;5001351;28;20038;-82
2024/02/28 04:49:00;;;;;;;30.75;11.55;;;;;;;4.97;63.97;97434.03;5004279;28;20032;-82
2024/02/28 04:51:25;;;;;;;29.00;14.90;;;;;;;4.93;63.89;97439.78;5015160;28;20030;-78
2024/02/28 04:53:50;;;;;;;53.33;18.23;;;;;;;4.95;64.83;97441.19;5002321;28;20036;-78
2024/02/28 04:56:16;;;;;;;46.65;17.50;;;;;;;4.97;64.51;97449.50;4997265;28;20484;-78
2024/02/28 04:58:41;;;;;;;66.30;15.15;;;;;;;4.92;64.54;97446.75;4990908;28;20401;-78
2024/02/28 05:01:06;;;;;;;31.45;13.70;;;;;;;4.98;64.88;97452.88;4990212;28;20493;-78
2024/02/28 05:03:32;;;;;;;27.20;13.70;;;;;;;4.96;64.82;97450.50;5007254;28;20514;-78
2024/02/28 05:05:57;;;;;;;29.80;15.65;;;;;;;5.08;64.30;97458.41;5006709;28;20092;-78
2024/02/28 05:08:23;;;;;;;31.15;15.88;;;;;;;5.04;64.26;97458.03;4998578;28;20039;-78
2024/02/28 05:10:50;;;;;;;26.40;13.60;;;;;;;5.06;63.42;97466.38;4974792;28;20559;-82
2024/02/28 05:13:15;;;;;;;25.67;12.70;;;;;;;5.05;63.88;97459.63;4983911;28;20067;-82
2024/02/28 05:15:40;;;;;;;27.95;13.48;;;;;;;5.05;64.48;97459.63;4974951;28;20069;-82
2024/02/28 05:18:06;;;;;;;29.02;14.30;;;;;;;5.05;64.21;97459.63;5000061;28;20227;-82
2024/02/28 05:20:31;;;;;;;29.05;14.57;;;;;;;5.09;64.00;97460.03;4998666;28;20160;-83
2024/02/28 05:22:57;;;;;;;32.63;14.63;;;;;;;5.10;64.17;97448.69;5007094;28;20478;-78
2024/02/28 05:25:22;;;;;;;32.90;15.35;;;;;;;5.17;63.86;97464.16;4974002;28;20548;-78
2024/02/28 05:27:47;;;;;;;30.67;14.98;;;;;;;5.17;64.07;97464.94;4975377;28;20030;-82
2024/02/28 05:30:13;;;;;;;34.25;15.68;;;;;;;5.16;63.47;97470.34;4990764;28;20721;-83
2024/02/28 05:32:38;;;;;;;29.58;14.32;;;;;;;5.14;63.90;97474.88;4985123;28;20030;-81
2024/02/28 05:35:04;;;;;;;34.22;15.65;;;;;;;5.19;63.57;97481.03;4993108;28;20042;-82
2024/02/28 05:37:30;;;;;;;35.03;15.07;;;;;;;5.27;63.45;97482.59;5016422;28;20062;-82
2024/02/28 05:39:55;;;;;;;32.92;15.57;;;;;;;5.23;63.66;97484.00;4974944;28;20034;-78
2024/02/28 05:42:22;;;;;;;42.70;17.30;;;;;;;5.18;64.83;97473.50;5008401;28;20371;-78
2024/02/28 05:44:48;;;;;;;46.63;18.50;;;;;;;5.25;65.23;97474.28;4995387;28;20524;-78
2024/02/28 05:47:14;;;;;;;38.22;18.10;;;;;;;5.37;65.35;97474.44;5006490;28;20044;-79
2024/02/28 05:49:39;;;;;;;39.22;17.98;;;;;;;5.40;64.31;97466.28;5006880;28;20478;-78
2024/02/28 05:52:05;;;;;;;34.88;15.43;;;;;;;5.46;64.41;97475.78;4990468;28;20033;-78
2024/02/28 05:54:31;;;;;;;33.95;15.35;;;;;;;5.52;64.92;97485.31;4989908;28;20383;-78
2024/02/28 05:56:56;;;;;;;33.65;16.10;;;;;;;5.46;63.58;97475.78;4998097;28;20095;-78
2024/02/28 05:59:22;;;;;;;44.95;18.60;;;;;;;5.49;64.96;97496.06;4981804;28;20037;-78
2024/02/28 06:01:47;;;;;;;35.85;16.25;;;;;;;5.55;65.11;97491.84;4975537;28;20037;-78
2024/02/28 06:04:12;;;;;;;37.67;17.50;;;;;;;5.54;65.43;97490.28;4973592;28;20112;-79
2024/02/28 06:06:38;;;;;;;42.22;17.08;;;;;;;5.66;64.83;97501.56;5000085;28;20038;-78
2024/02/28 06:09:04;;;;;;;37.63;17.13;;;;;;;5.71;65.49;97499.16;4989674;28;20041;-78
2024/02/28 06:11:29;;;;;;;37.92;16.38;;;;;;;5.73;65.46;97497.16;5007185;28;20042;-78
2024/02/28 06:13:54;;;;;;;111.85;23.00;;;;;;;5.72;65.89;97515.44;5009877;28;20037;-78
2024/02/28 06:16:20;;;;;;;74.68;21.88;;;;;;;5.77;66.24;97500.91;4992968;28;20042;-78
2024/02/28 06:18:45;;;;;;;56.38;20.40;;;;;;;5.80;66.08;97503.09;4977508;28;20426;-78
2024/02/28 06:21:11;;;;;;;50.92;18.80;;;;;;;5.79;66.29;97511.84;5009930;28;20030;-78
2024/02/28 06:23:36;;;;;;;69.18;21.40;;;;;;;5.84;66.16;97518.19;5010429;28;20508;-82
2024/02/28 06:26:01;;;;;;;45.53;19.35;;;;;;;5.91;65.81;97518.94;5018924;28;20405;-82
2024/02/28 06:28:27;;;;;;;48.60;17.85;;;;;;;5.97;66.05;97534.47;4977880;28;20041;-83
2024/02/28 06:30:52;;;;;;;76.03;20.50;;;;;;;5.90;65.68;97538.06;5008891;28;20048;-82
2024/02/28 06:33:18;;;;;;;63.20;20.80;;;;;;;5.82;65.78;97531.31;4978469;28;20470;-78
2024/02/28 06:35:43;;;;;;;66.47;20.08;;;;;;;5.87;66.05;97544.41;5012715;28;20121;-78
2024/02/28 06:38:09;;;;;;;137.80;23.60;;;;;;;5.81;66.06;97540.06;5009182;28;20126;-78
2024/02/28 06:40:34;;;;;;;80.25;20.25;;;;;;;5.82;65.35;97546.81;5003529;28;20033;-78
2024/02/28 06:43:00;;;;;;;66.00;17.15;;;;;;;5.83;66.48;97566.50;5012676;28;20030;-78
2024/02/28 06:45:26;;;;;;;61.42;16.77;;;;;;;5.80;66.02;97559.94;4992691;28;20046;-78
2024/02/28 06:47:51;;;;;;;51.15;16.83;;;;;;;5.80;65.73;97565.09;4988251;28;20038;-78
2024/02/28 06:50:17;;;;;;;55.33;16.88;;;;;;;5.78;66.36;97561.94;4976802;28;20084;-79
2024/02/28 06:52:42;;;;;;;239.13;25.23;;;;;;;5.74;66.45;97571.09;4993231;28;20065;-78
2024/02/28 06:55:11;;;;;;;96.95;18.70;;;;;;;5.67;65.69;97570.31;4992483;28;20034;-78
2024/02/28 06:57:39;;;;;;;38.50;13.50;;;;;;;5.63;65.75;97551.84;4992912;28;20116;-78
2024/02/28 07:00:09;;;;;;;146.93;21.27;;;;;;;5.69;64.93;97575.25;4992836;28;20064;-78
2024/02/28 07:02:35;;;;;;;34.20;14.38;;;;;;;5.60;66.34;97570.34;4978000;28;20137;-78
2024/02/28 07:05:03;;;;;;;92.15;19.05;;;;;;;5.67;66.82;97580.63;5010868;28;20049;-78
2024/02/28 07:07:28;;;;;;;44.25;14.60;;;;;;;5.69;65.87;97583.00;4985270;28;20038;-78
2024/02/28 07:09:53;;;;;;;85.10;17.52;;;;;;;5.69;65.79;97570.91;5009106;28;20030;-78
2024/02/28 07:12:19;;;;;;;41.17;15.85;;;;;;;5.74;66.85;97572.88;5008634;28;20092;-78
2024/02/28 07:14:44;;;;;;;45.60;15.90;;;;;;;5.86;66.25;97575.63;4992306;28;20137;-78
2024/02/28 07:17:10;;;;;;;59.45;15.32;;;;;;;5.89;66.33;97570.06;5008713;28;20038;-78
2024/02/28 07:19:36;;;;;;;103.55;19.02;;;;;;;5.84;66.58;97567.28;5003120;28;20109;-78
2024/02/28 07:22:01;;;;;;;118.53;20.85;;;;;;;5.80;66.22;97572.06;5008393;28;20132;-78
2024/02/28 07:24:27;;;;;;;95.18;23.40;;;;;;;5.83;65.50;97563.91;4991792;28;20413;-79
2024/02/28 07:26:52;;;;;;;38.08;17.75;;;;;;;5.96;66.56;97569.06;4992426;28;20068;-78
2024/02/28 07:29:17;;;;;;;48.47;18.45;;;;;;;6.08;66.40;97583.94;4976139;28;20026;-78
2024/02/28 07:31:43;;;;;;;60.85;17.88;;;;;;;6.07;65.38;97584.94;4992283;28;20125;-78
2024/02/28 07:34:09;;;;;;;79.63;18.00;;;;;;;6.00;65.79;97584.97;5011488;28;20059;-82
2024/02/28 07:36:34;;;;;;;187.50;24.83;;;;;;;5.69;66.11;97585.59;4985900;28;20061;-82
2024/02/28 07:39:00;;;;;;;123.80;21.00;;;;;;;5.75;67.22;97579.63;5017502;28;20046;-82
2024/02/28 07:41:25;;;;;;;65.57;16.42;;;;;;;5.73;65.81;97585.00;5000460;28;20395;-82
2024/02/28 07:43:50;;;;;;;199.55;24.77;;;;;;;5.63;66.55;97579.47;5001798;28;20120;-83
2024/02/28 07:46:16;;;;;;;67.05;16.75;;;;;;;5.70;67.03;97585.41;4999488;28;20406;-82
2024/02/28 07:48:41;;;;;;;92.38;17.90;;;;;;;5.75;66.21;97575.25;4982749;28;20037;-83
2024/02/28 07:51:08;;;;;;;34.05;14.80;;;;;;;5.76;66.83;97573.47;4978438;28;20037;-82
2024/02/28 07:53:33;;;;;;;43.63;13.95;;;;;;;5.84;66.53;97575.03;5008831;28;20103;-83
2024/02/28 07:55:59;;;;;;;31.05;14.48;;;;;;;5.81;66.91;97581.41;5015420;28;20037;-82
2024/02/28 07:58:24;;;;;;;55.33;14.77;;;;;;;5.84;66.14;97581.00;4991943;28;20398;-82
2024/02/28 08:00:52;;;;;;;50.25;15.05;;;;;;;5.81;67.49;97589.94;4975515;28;20037;-82
2024/02/28 08:03:18;;;;;;;48.22;15.73;;;;;;;5.81;66.14;97592.53;4984515;28;20125;-83
2024/02/28 08:05:44;;;;;;;57.92;16.48;;;;;;;5.88;66.62;97592.53;4991839;28;20161;-83
2024/02/28 08:08:10;;;;;;;31.77;14.00;;;;;;;6.00;66.00;97601.25;5008147;28;20048;-82
2024/02/28 08:10:37;;;;;;;64.65;18.42;;;;;;;5.99;65.98;97591.91;4992276;28;20037;-83
2024/02/28 08:13:03;;;;;;;57.15;16.55;;;;;;;6.01;66.92;97599.47;4991293;28;20542;-82
2024/02/28 08:15:28;;;;;;;45.10;15.73;;;;;;;6.02;65.27;97598.47;5007702;28;20494;-83
2024/02/28 08:17:54;;;;;;;50.50;14.98;;;;;;;6.05;65.29;97598.06;4991625;28;20111;-82
2024/02/28 08:20:21;;;;;;;119.40;19.60;;;;;;;5.84;66.58;97590.53;4976252;28;20490;-82
2024/02/28 08:22:47;;;;;;;148.23;21.90;;;;;;;5.77;66.26;97606.06;5000499;28;20044;-83
2024/02/28 08:25:14;;;;;;;72.68;16.42;;;;;;;5.94;66.19;97609.78;5009511;28;20489;-84
2024/02/28 08:27:39;;;;;;;72.25;15.50;;;;;;;5.99;66.02;97601.47;5008455;28;20116;-83
2024/02/28 08:30:06;;;;;;;109.05;18.73;;;;;;;5.96;65.23;97599.28;4982222;28;20117;-83
2024/02/28 08:32:32;;;;;;;143.57;18.95;;;;;;;5.56;66.49;97596.78;5007949;28;20076;-82
2024/02/28 08:34:57;;;;;;;50.30;15.38;;;;;;;5.87;66.75;97603.84;4985169;28;20383;-82
2024/02/28 08:37:23;;;;;;;80.70;17.38;;;;;;;5.89;66.13;97606.22;4991199;28;20033;-81
2024/02/28 08:39:49;;;;;;;39.53;13.05;;;;;;;5.94;66.48;97611.59;4991281;28;20489;-83
2024/02/28 08:42:14;;;;;;;49.53;14.77;;;;;;;6.03;65.59;97607.00;4978240;28;20069;-82
2024/02/28 08:44:40;;;;;;;36.35;13.32;;;;;;;6.15;66.04;97623.47;5007619;28;20125;-78
2024/02/28 08:47:07;;;;;;;48.28;15.10;;;;;;;6.02;66.78;97619.16;4990657;28;20371;-79
2024/02/28 08:49:33;;;;;;;49.03;15.85;;;;;;;6.12;66.58;97623.91;4992557;28;20534;-79
2024/02/28 08:51:58;;;;;;;158.05;22.55;;;;;;;6.01;66.61;97627.88;4974584;28;20744;-78
2024/02/28 08:54:23;;;;;;;76.63;18.48;;;;;;;6.04;66.57;97632.66;5006424;28;20076;-78
2024/02/28 08:56:49;;;;;;;71.13;17.45;;;;;;;6.16;65.90;97625.84;5014351;28;20544;-78
2024/02/28 08:59:14;;;;;;;127.40;19.50;;;;;;;6.02;65.73;97626.13;4974537;28;20030;-79
2024/02/28 09:01:41;;;;;;;49.75;16.58;;;;;;;6.13;66.19;97633.22;4992456;28;20080;-78
2024/02/28 09:04:07;;;;;;;77.47;17.75;;;;;;;6.29;67.32;97630.19;4990364;28;20034;-78
2024/02/28 09:06:32;;;;;;;86.85;18.42;;;;;;;6.25;66.43;97629.00;4990775;28;20044;-78
2024/02/28 09:08:58;;;;;;;34.58;13.95;;;;;;;6.37;66.26;97639.50;4990593;28;20030;-79
2024/02/28 09:11:24;;;;;;;125.25;19.85;;;;;;;6.36;65.96;97651.66;4998726;28;20033;-78
2024/02/28 09:13:50;;;;;;;99.65;16.73;;;;;;;6.30;66.29;97655.03;4990438;28;20037;-79
2024/02/28 09:16:15;;;;;;;29.63;13.75;;;;;;;6.46;65.07;97664.16;4990099;28;20034;-79
2024/02/28 09:18:42;;;;;;;40.08;14.93;;;;;;;6.52;66.13;97675.47;4990777;28;20034;-79
2024/02/28 09:21:08;;;;;;;44.22;15.90;;;;;;;6.59;65.76;97670.25;4974152;28;20062;-79
2024/02/28 09:23:33;;;;;;;30.50;13.90;;;;;;;6.69;64.76;97675.78;4990538;28;20505;-79
2024/02/28 09:26:03;;;;;;;43.10;16.50;;;;;;;6.53;65.92;97677.84;5006415;28;20072;-79
2024/02/28 09:28:28;;;;;;;73.88;18.55;;;;;;;6.62;65.61;97680.22;4987949;28;20033;-78
2024/02/28 09:30:54;;;;;;;34.85;15.82;;;;;;;6.73;65.14;97680.34;5006732;28;20482;-78
2024/02/28 09:33:19;;;;;;;40.90;15.45;;;;;;;6.88;65.42;97689.63;5005506;28;20125;-78
2024/02/28 09:35:45;;;;;;;39.83;15.65;;;;;;;7.00;65.59;97692.34;5008540;28;20037;-79
2024/02/28 09:38:11;;;;;;;38.03;15.88;;;;;;;7.18;64.89;97682.09;4973831;28;20041;-79
2024/02/28 09:40:36;;;;;;;34.65;14.77;;;;;;;7.11;65.37;97678.72;4984532;28;20041;-79
2024/02/28 09:43:05;;;;;;;82.32;18.10;;;;;;;7.03;65.25;97676.41;4993181;28;20077;-79
2024/02/28 09:45:31;;;;;;;33.22;14.50;;;;;;;7.25;64.02;97666.50;4999074;28;20085;-79
2024/02/28 09:48:00;;;;;;;70.05;17.17;;;;;;;7.30;65.63;97677.03;4993333;28;20029;-79
2024/02/28 09:50:27;;;;;;;32.22;15.00;;;;;;;7.29;64.98;97683.19;5010458;28;20037;-79
2024/02/28 09:52:53;;;;;;;33.40;15.60;;;;;;;7.32;65.24;97682.78;5010642;28;20049;-79
2024/02/28 09:55:19;;;;;;;32.05;14.10;;;;;;;7.38;63.98;97675.97;4994869;28;20026;-79
2024/02/28 09:57:47;;;;;;;43.53;16.35;;;;;;;7.32;63.94;97675.00;4999577;28;20034;-79
2024/02/28 10:00:13;;;;;;;36.22;16.38;;;;;;;7.35;65.39;97686.75;5008449;28;20546;-79
2024/02/28 10:02:40;;;;;;;34.58;15.50;;;;;;;7.60;63.17;97684.94;4992141;28;20030;-78
2024/02/28 10:05:06;;;;;;;34.42;15.00;;;;;;;7.39;64.76;97682.75;5013475;28;20164;-83
2024/02/28 10:07:32;;;;;;;39.97;16.83;;;;;;;7.34;65.10;97688.53;4994682;28;20030;-83
2024/02/28 10:09:57;;;;;;;38.15;15.68;;;;;;;7.55;65.12;97689.19;5010627;28;20041;-84
2024/02/28 10:12:22;;;;;;;35.45;16.48;;;;;;;7.59;64.48;97685.16;4994173;28;20034;-83
2024/02/28 10:14:51;;;;;;;53.70;17.80;;;;;;;7.55;64.42;97695.16;4998965;28;20042;-83
2024/02/28 10:17:16;;;;;;;36.63;16.75;;;;;;;7.55;64.95;97694.38;5010706;28;20026;-83
2024/02/28 10:19:42;;;;;;;42.38;18.42;;;;;;;7.65;65.22;97695.47;4989380;28;20405;-81
2024/02/28 10:22:07;;;;;;;43.95;18.70;;;;;;;7.74;65.08;97702.97;5010661;28;20038;-83
2024/02/28 10:24:37;;;;;;;42.70;17.52;;;;;;;7.81;64.53;97688.16;5001140;28;20127;-82
2024/02/28 10:27:03;;;;;;;40.88;18.60;;;;;;;7.77;64.19;97707.75;5010194;28;20033;-83
2024/02/28 10:29:28;;;;;;;38.92;18.13;;;;;;;7.84;63.98;97705.88;4986547;28;20301;-83
2024/02/28 10:31:57;;;;;;;38.72;17.00;;;;;;;7.96;64.39;97706.75;5010471;28;20375;-82
2024/02/28 10:34:22;;;;;;;36.70;16.70;;;;;;;7.73;63.67;97711.75;4977442;28;20516;-83
2024/02/28 10:36:51;;;;;;;39.90;17.63;;;;;;;7.82;64.59;97716.47;4982241;28;20069;-83
2024/02/28 10:39:17;;;;;;;40.45;17.92;;;;;;;7.87;64.12;97705.47;4977097;28;20038;-82
2024/02/28 10:41:45;;;;;;;42.30;17.30;;;;;;;8.02;64.06;97721.47;4995040;28;20032;-81
2024/02/28 10:44:12;;;;;;;35.47;16.55;;;;;;;8.26;63.73;97713.88;5009825;28;20033;-83
2024/02/28 10:46:38;;;;;;;43.28;18.63;;;;;;;8.38;64.29;97719.91;5010506;28;20033;-84
2024/02/28 10:49:05;;;;;;;38.33;17.45;;;;;;;8.41;63.90;97714.31;5010257;28;20092;-81
2024/02/28 10:51:39;;;;;;;37.17;17.08;;;;;;;8.57;63.56;97715.53;4994096;28;20040;-83
2024/02/28 10:54:12;;;;;;;38.55;17.95;;;;;;;9.05;62.26;97703.56;4990417;28;20061;-82
2024/02/28 10:56:41;;;;;;;35.17;17.38;;;;;;;9.05;62.72;97705.34;4991566;28;20060;-82
2024/02/28 10:59:12;;;;;;;33.85;16.88;;;;;;;9.40;61.12;97702.84;5010159;28;20120;-83
2024/02/28 11:01:42;;;;;;;33.58;16.15;;;;;;;9.48;60.37;97707.72;5011457;28;20033;-82
2024/02/28 11:04:07;;;;;;;31.27;15.63;;;;;;;9.99;58.82;97708.13;4976695;28;20546;-82
2024/02/28 11:06:33;;;;;;;30.85;15.15;;;;;;;10.01;58.92;97711.28;4976960;28;20129;-81
2024/02/28 11:08:59;;;;;;;28.65;14.38;;;;;;;10.00;59.26;97711.50;4992913;28;20028;-81
2024/02/28 11:11:30;;;;;;;27.20;14.10;;;;;;;10.09;58.39;97708.34;5009692;28;20038;-83
2024/02/28 11:13:57;;;;;;;28.10;14.85;;;;;;;10.33;57.99;97712.72;5009051;28;20055;-82
2024/02/28 11:16:32;;;;;;;25.00;13.80;;;;;;;10.57;56.26;97703.06;5008336;28;20053;-78
2024/02/28 11:18:59;;;;;;;23.20;14.68;;;;;;;10.63;55.92;97702.16;5009871;28;20034;-78